sensor_id;sensor_type;location;lat;lon;timestamp;P1;durP1;ratioP1;P2;durP2;ratioP2
23360;SDS011;11852;50.082;18.554;2024-03-08T00:00:03;56.4;;;33.5;;
23360;SDS011;11852;50.082;18.554;2024-03-08T00:01:08;60.0;;;33.4;;
23360;SDS011;11852;50.082;18.554;2024-03-08T00:02:13;58.6;;;33.4;;
23360;SDS011;11852;50.082;18.554;2024-03-08T00:03:18;60.1;;;33.7;;
23360;SDS011;11852;50.082;18.554;2024-03-08T00:04:23;57.0;;;33.8;;
23360;SDS011;11852;50.082;18.554;2024-03-08T00:05:28;57.3;;;32.3;;
23360;SDS011;11852;50.082;18.554;2024-03-08T00:06:33;58.2;;;32.4;;
23360;SDS011;11852;50.082;18.554;2024-03-08T00:07:39;57.1;;;33.3;;
23360;SDS011;11852;50.082;18.554;2024-03-08T00:08:43;61.7;;;34.1;;
23360;SDS011;11852;50.082;18.554;2024-03-08T00:09:48;57.9;;;33.6;;
23360;SDS011;11852;50.082;18.554;2024-03-08T00:10:54;59.6;;;33.3;;
23360;SDS011;11852;50.082;18.554;2024-03-08T00:11:59;63.0;;;34.5;;
23360;SDS011;11852;50.082;18.554;2024-03-08T00:13:04;59.8;;;33.8;;
23360;SDS011;11852;50.082;18.554;2024-03-08T00:14:09;59.8;;;33.7;;
23360;SDS011;11852;50.082;18.554;2024-03-08T00:15:15;60.5;;;33.7;;
23360;SDS011;11852;50.082;18.554;2024-03-08T00:16:19;60.0;;;33.3;;
23360;SDS011;11852;50.082;18.554;2024-03-08T00:17:24;60.0;;;34.0;;
23360;SDS011;11852;50.082;18.554;2024-03-08T00:18:29;60.6;;;33.4;;
23360;SDS011;11852;50.082;18.554;2024-03-08T00:19:34;65.4;;;34.7;;
23360;SDS011;11852;50.082;18.554;2024-03-08T00:20:39;64.1;;;35.0;;
23360;SDS011;11852;50.082;18.554;2024-03-08T00:21:44;65.9;;;34.8;;
23360;SDS011;11852;50.082;18.554;2024-03-08T00:22:49;60.5;;;34.5;;
23360;SDS011;11852;50.082;18.554;2024-03-08T00:23:54;60.8;;;33.6;;
23360;SDS011;11852;50.082;18.554;2024-03-08T00:24:59;61.0;;;34.4;;
23360;SDS011;11852;50.082;18.554;2024-03-08T00:26:04;65.3;;;34.6;;
23360;SDS011;11852;50.082;18.554;2024-03-08T00:27:09;64.0;;;34.6;;
23360;SDS011;11852;50.082;18.554;2024-03-08T00:28:14;60.4;;;33.4;;
23360;SDS011;11852;50.082;18.554;2024-03-08T00:29:20;61.7;;;34.7;;
23360;SDS011;11852;50.082;18.554;2024-03-08T00:30:25;61.4;;;34.2;;
23360;SDS011;11852;50.082;18.554;2024-03-08T00:31:33;57.6;;;32.1;;
23360;SDS011;11852;50.082;18.554;2024-03-08T00:32:38;59.9;;;34.5;;
23360;SDS011;11852;50.082;18.554;2024-03-08T00:33:44;52.3;;;30.9;;
23360;SDS011;11852;50.082;18.554;2024-03-08T00:34:49;53.7;;;31.5;;
23360;SDS011;11852;50.082;18.554;2024-03-08T00:35:54;55.0;;;31.7;;
23360;SDS011;11852;50.082;18.554;2024-03-08T00:36:59;54.2;;;32.1;;
23360;SDS011;11852;50.082;18.554;2024-03-08T00:38:05;56.2;;;32.0;;
23360;SDS011;11852;50.082;18.554;2024-03-08T00:39:10;52.1;;;31.4;;
23360;SDS011;11852;50.082;18.554;2024-03-08T00:40:15;54.1;;;30.5;;
23360;SDS011;11852;50.082;18.554;2024-03-08T00:41:20;55.0;;;32.3;;
23360;SDS011;11852;50.082;18.554;2024-03-08T00:42:28;53.5;;;32.7;;
23360;SDS011;11852;50.082;18.554;2024-03-08T00:43:33;53.4;;;30.4;;
23360;SDS011;11852;50.082;18.554;2024-03-08T00:44:38;53.6;;;31.6;;
23360;SDS011;11852;50.082;18.554;2024-03-08T00:45:43;53.9;;;32.4;;
23360;SDS011;11852;50.082;18.554;2024-03-08T00:46:48;59.1;;;33.0;;
23360;SDS011;11852;50.082;18.554;2024-03-08T00:47:55;53.3;;;31.1;;
23360;SDS011;11852;50.082;18.554;2024-03-08T00:49:00;58.6;;;33.5;;
23360;SDS011;11852;50.082;18.554;2024-03-08T00:50:05;56.7;;;33.1;;
23360;SDS011;11852;50.082;18.554;2024-03-08T00:51:10;63.1;;;35.6;;
23360;SDS011;11852;50.082;18.554;2024-03-08T00:52:14;60.2;;;33.1;;
23360;SDS011;11852;50.082;18.554;2024-03-08T00:53:19;55.1;;;33.2;;
23360;SDS011;11852;50.082;18.554;2024-03-08T00:54:24;61.1;;;34.5;;
23360;SDS011;11852;50.082;18.554;2024-03-08T00:55:29;59.4;;;33.4;;
23360;SDS011;11852;50.082;18.554;2024-03-08T00:56:33;60.2;;;33.1;;
23360;SDS011;11852;50.082;18.554;2024-03-08T00:57:38;61.2;;;35.0;;
23360;SDS011;11852;50.082;18.554;2024-03-08T00:58:43;60.8;;;34.6;;
23360;SDS011;11852;50.082;18.554;2024-03-08T00:59:48;58.2;;;34.2;;
23360;SDS011;11852;50.082;18.554;2024-03-08T01:00:53;56.1;;;34.7;;
23360;SDS011;11852;50.082;18.554;2024-03-08T01:01:57;58.1;;;33.2;;
23360;SDS011;11852;50.082;18.554;2024-03-08T01:03:02;58.2;;;33.2;;
23360;SDS011;11852;50.082;18.554;2024-03-08T01:04:07;59.4;;;34.4;;
23360;SDS011;11852;50.082;18.554;2024-03-08T01:05:12;59.6;;;33.9;;
23360;SDS011;11852;50.082;18.554;2024-03-08T01:06:17;60.8;;;35.1;;
23360;SDS011;11852;50.082;18.554;2024-03-08T01:07:21;60.7;;;35.3;;
23360;SDS011;11852;50.082;18.554;2024-03-08T01:08:26;58.0;;;33.1;;
23360;SDS011;11852;50.082;18.554;2024-03-08T01:09:31;61.8;;;34.1;;
23360;SDS011;11852;50.082;18.554;2024-03-08T01:10:36;57.2;;;34.4;;
23360;SDS011;11852;50.082;18.554;2024-03-08T01:11:41;59.4;;;33.8;;
23360;SDS011;11852;50.082;18.554;2024-03-08T01:12:48;57.5;;;34.4;;
23360;SDS011;11852;50.082;18.554;2024-03-08T01:13:53;57.9;;;32.7;;
23360;SDS011;11852;50.082;18.554;2024-03-08T01:14:58;61.6;;;35.5;;
23360;SDS011;11852;50.082;18.554;2024-03-08T01:16:03;59.0;;;34.9;;
23360;SDS011;11852;50.082;18.554;2024-03-08T01:17:08;59.4;;;33.3;;
23360;SDS011;11852;50.082;18.554;2024-03-08T01:18:13;59.6;;;33.3;;
23360;SDS011;11852;50.082;18.554;2024-03-08T01:19:18;57.2;;;32.6;;
23360;SDS011;11852;50.082;18.554;2024-03-08T01:20:22;58.6;;;33.3;;
23360;SDS011;11852;50.082;18.554;2024-03-08T01:21:27;56.6;;;31.8;;
23360;SDS011;11852;50.082;18.554;2024-03-08T01:22:32;55.3;;;32.0;;
23360;SDS011;11852;50.082;18.554;2024-03-08T01:23:37;55.4;;;33.1;;
23360;SDS011;11852;50.082;18.554;2024-03-08T01:24:42;57.2;;;31.9;;
23360;SDS011;11852;50.082;18.554;2024-03-08T01:25:46;52.9;;;30.8;;
23360;SDS011;11852;50.082;18.554;2024-03-08T01:26:51;57.1;;;32.0;;
23360;SDS011;11852;50.082;18.554;2024-03-08T01:27:56;55.0;;;31.7;;
23360;SDS011;11852;50.082;18.554;2024-03-08T01:29:01;60.3;;;33.1;;
23360;SDS011;11852;50.082;18.554;2024-03-08T01:30:06;52.5;;;30.8;;
23360;SDS011;11852;50.082;18.554;2024-03-08T01:31:11;57.4;;;33.0;;
23360;SDS011;11852;50.082;18.554;2024-03-08T01:32:16;58.4;;;33.1;;
23360;SDS011;11852;50.082;18.554;2024-03-08T01:33:21;53.5;;;31.3;;
23360;SDS011;11852;50.082;18.554;2024-03-08T01:34:25;54.8;;;32.1;;
23360;SDS011;11852;50.082;18.554;2024-03-08T01:35:30;57.4;;;33.8;;
23360;SDS011;11852;50.082;18.554;2024-03-08T01:36:35;56.9;;;32.9;;
23360;SDS011;11852;50.082;18.554;2024-03-08T01:37:40;58.9;;;33.5;;
23360;SDS011;11852;50.082;18.554;2024-03-08T01:38:45;56.7;;;32.1;;
23360;SDS011;11852;50.082;18.554;2024-03-08T01:39:49;57.2;;;33.0;;
23360;SDS011;11852;50.082;18.554;2024-03-08T01:40:54;54.8;;;31.9;;
23360;SDS011;11852;50.082;18.554;2024-03-08T01:41:59;62.2;;;35.6;;
23360;SDS011;11852;50.082;18.554;2024-03-08T01:44:18;55.6;;;32.6;;
23360;SDS011;11852;50.082;18.554;2024-03-08T01:45:23;55.7;;;31.1;;
23360;SDS011;11852;50.082;18.554;2024-03-08T01:46:29;52.1;;;31.5;;
23360;SDS011;11852;50.082;18.554;2024-03-08T01:47:33;53.7;;;30.7;;
23360;SDS011;11852;50.082;18.554;2024-03-08T01:48:38;47.0;;;29.1;;
23360;SDS011;11852;50.082;18.554;2024-03-08T01:49:42;48.1;;;29.0;;
23360;SDS011;11852;50.082;18.554;2024-03-08T01:50:47;52.0;;;30.0;;
23360;SDS011;11852;50.082;18.554;2024-03-08T01:51:52;51.2;;;31.1;;
23360;SDS011;11852;50.082;18.554;2024-03-08T01:52:56;49.6;;;30.4;;
23360;SDS011;11852;50.082;18.554;2024-03-08T01:54:01;51.4;;;30.4;;
23360;SDS011;11852;50.082;18.554;2024-03-08T01:55:09;53.7;;;31.4;;
23360;SDS011;11852;50.082;18.554;2024-03-08T01:56:14;52.6;;;32.1;;
23360;SDS011;11852;50.082;18.554;2024-03-08T01:57:19;55.2;;;31.0;;
23360;SDS011;11852;50.082;18.554;2024-03-08T01:58:24;51.5;;;29.6;;
23360;SDS011;11852;50.082;18.554;2024-03-08T01:59:28;56.2;;;33.5;;
23360;SDS011;11852;50.082;18.554;2024-03-08T02:00:33;56.9;;;32.6;;
23360;SDS011;11852;50.082;18.554;2024-03-08T02:01:38;54.1;;;32.1;;
23360;SDS011;11852;50.082;18.554;2024-03-08T02:02:42;55.6;;;32.7;;
23360;SDS011;11852;50.082;18.554;2024-03-08T02:03:47;53.9;;;31.7;;
23360;SDS011;11852;50.082;18.554;2024-03-08T02:04:52;57.1;;;33.0;;
23360;SDS011;11852;50.082;18.554;2024-03-08T02:06:00;55.3;;;32.0;;
23360;SDS011;11852;50.082;18.554;2024-03-08T02:07:05;56.5;;;33.1;;
23360;SDS011;11852;50.082;18.554;2024-03-08T02:08:13;53.2;;;31.8;;
23360;SDS011;11852;50.082;18.554;2024-03-08T02:09:17;52.8;;;32.8;;
23360;SDS011;11852;50.082;18.554;2024-03-08T02:10:22;53.7;;;31.2;;
23360;SDS011;11852;50.082;18.554;2024-03-08T02:11:27;50.6;;;30.1;;
23360;SDS011;11852;50.082;18.554;2024-03-08T02:12:32;51.0;;;30.4;;
23360;SDS011;11852;50.082;18.554;2024-03-08T02:13:37;50.7;;;30.8;;
23360;SDS011;11852;50.082;18.554;2024-03-08T02:14:45;48.0;;;30.4;;
23360;SDS011;11852;50.082;18.554;2024-03-08T02:15:50;50.2;;;29.7;;
23360;SDS011;11852;50.082;18.554;2024-03-08T02:16:54;50.8;;;30.8;;
23360;SDS011;11852;50.082;18.554;2024-03-08T02:17:59;51.8;;;30.9;;
23360;SDS011;11852;50.082;18.554;2024-03-08T02:19:04;53.4;;;30.3;;
23360;SDS011;11852;50.082;18.554;2024-03-08T02:20:09;50.0;;;30.6;;
23360;SDS011;11852;50.082;18.554;2024-03-08T02:21:14;49.6;;;29.7;;
23360;SDS011;11852;50.082;18.554;2024-03-08T02:22:19;53.2;;;31.2;;
23360;SDS011;11852;50.082;18.554;2024-03-08T02:23:26;50.4;;;30.9;;
23360;SDS011;11852;50.082;18.554;2024-03-08T02:24:31;52.2;;;31.0;;
23360;SDS011;11852;50.082;18.554;2024-03-08T02:25:35;50.0;;;31.3;;
23360;SDS011;11852;50.082;18.554;2024-03-08T02:26:40;52.4;;;31.6;;
23360;SDS011;11852;50.082;18.554;2024-03-08T02:27:45;51.7;;;31.8;;
23360;SDS011;11852;50.082;18.554;2024-03-08T02:28:50;50.8;;;30.4;;
23360;SDS011;11852;50.082;18.554;2024-03-08T02:29:55;51.9;;;31.7;;
23360;SDS011;11852;50.082;18.554;2024-03-08T02:30:59;57.7;;;33.1;;
23360;SDS011;11852;50.082;18.554;2024-03-08T02:32:04;51.3;;;32.2;;
23360;SDS011;11852;50.082;18.554;2024-03-08T02:33:13;52.1;;;31.3;;
23360;SDS011;11852;50.082;18.554;2024-03-08T02:34:16;56.5;;;32.7;;
23360;SDS011;11852;50.082;18.554;2024-03-08T02:35:21;53.3;;;31.6;;
23360;SDS011;11852;50.082;18.554;2024-03-08T02:36:26;52.6;;;30.9;;
23360;SDS011;11852;50.082;18.554;2024-03-08T02:37:31;54.2;;;32.6;;
23360;SDS011;11852;50.082;18.554;2024-03-08T02:38:38;55.8;;;32.7;;
23360;SDS011;11852;50.082;18.554;2024-03-08T02:39:43;54.7;;;31.6;;
23360;SDS011;11852;50.082;18.554;2024-03-08T02:40:49;54.1;;;30.8;;
23360;SDS011;11852;50.082;18.554;2024-03-08T02:41:52;53.3;;;31.5;;
23360;SDS011;11852;50.082;18.554;2024-03-08T02:42:57;50.4;;;30.0;;
23360;SDS011;11852;50.082;18.554;2024-03-08T02:44:02;52.1;;;31.6;;
23360;SDS011;11852;50.082;18.554;2024-03-08T02:45:07;50.7;;;30.9;;
23360;SDS011;11852;50.082;18.554;2024-03-08T02:46:12;49.1;;;30.0;;
23360;SDS011;11852;50.082;18.554;2024-03-08T02:47:16;52.3;;;31.7;;
23360;SDS011;11852;50.082;18.554;2024-03-08T02:48:21;51.9;;;31.9;;
23360;SDS011;11852;50.082;18.554;2024-03-08T02:49:29;51.9;;;30.7;;
23360;SDS011;11852;50.082;18.554;2024-03-08T02:50:34;54.7;;;32.3;;
23360;SDS011;11852;50.082;18.554;2024-03-08T02:51:38;54.0;;;31.5;;
23360;SDS011;11852;50.082;18.554;2024-03-08T02:52:43;51.3;;;31.2;;
23360;SDS011;11852;50.082;18.554;2024-03-08T02:53:48;53.3;;;31.6;;
23360;SDS011;11852;50.082;18.554;2024-03-08T02:54:53;54.9;;;33.3;;
23360;SDS011;11852;50.082;18.554;2024-03-08T02:56:00;53.4;;;31.7;;
23360;SDS011;11852;50.082;18.554;2024-03-08T02:57:05;52.7;;;32.3;;
23360;SDS011;11852;50.082;18.554;2024-03-08T02:58:10;52.5;;;32.1;;
23360;SDS011;11852;50.082;18.554;2024-03-08T02:59:14;54.5;;;33.8;;
23360;SDS011;11852;50.082;18.554;2024-03-08T03:00:19;56.9;;;33.8;;
23360;SDS011;11852;50.082;18.554;2024-03-08T03:01:24;50.5;;;31.9;;
23360;SDS011;11852;50.082;18.554;2024-03-08T03:02:29;55.5;;;33.0;;
23360;SDS011;11852;50.082;18.554;2024-03-08T03:03:34;55.1;;;33.1;;
23360;SDS011;11852;50.082;18.554;2024-03-08T03:04:41;57.5;;;33.2;;
23360;SDS011;11852;50.082;18.554;2024-03-08T03:05:46;55.5;;;33.2;;
23360;SDS011;11852;50.082;18.554;2024-03-08T03:06:51;59.7;;;35.2;;
23360;SDS011;11852;50.082;18.554;2024-03-08T03:07:56;55.1;;;33.3;;
23360;SDS011;11852;50.082;18.554;2024-03-08T03:09:01;56.7;;;33.9;;
23360;SDS011;11852;50.082;18.554;2024-03-08T03:10:05;57.6;;;34.6;;
23360;SDS011;11852;50.082;18.554;2024-03-08T03:11:11;57.1;;;33.6;;
23360;SDS011;11852;50.082;18.554;2024-03-08T03:12:18;60.6;;;34.7;;
23360;SDS011;11852;50.082;18.554;2024-03-08T03:13:23;57.6;;;34.6;;
23360;SDS011;11852;50.082;18.554;2024-03-08T03:14:27;55.7;;;33.1;;
23360;SDS011;11852;50.082;18.554;2024-03-08T03:15:32;60.7;;;35.1;;
23360;SDS011;11852;50.082;18.554;2024-03-08T03:16:37;58.5;;;33.2;;
23360;SDS011;11852;50.082;18.554;2024-03-08T03:17:45;56.9;;;34.3;;
23360;SDS011;11852;50.082;18.554;2024-03-08T03:18:46;52.3;;;32.4;;
23360;SDS011;11852;50.082;18.554;2024-03-08T03:19:52;54.0;;;33.9;;
23360;SDS011;11852;50.082;18.554;2024-03-08T03:20:56;57.5;;;33.3;;
23360;SDS011;11852;50.082;18.554;2024-03-08T03:22:01;57.8;;;34.2;;
23360;SDS011;11852;50.082;18.554;2024-03-08T03:23:06;58.7;;;33.1;;
23360;SDS011;11852;50.082;18.554;2024-03-08T03:24:10;55.2;;;33.0;;
23360;SDS011;11852;50.082;18.554;2024-03-08T03:25:15;56.9;;;34.1;;
23360;SDS011;11852;50.082;18.554;2024-03-08T03:26:20;55.2;;;33.1;;
23360;SDS011;11852;50.082;18.554;2024-03-08T03:27:25;52.9;;;32.5;;
23360;SDS011;11852;50.082;18.554;2024-03-08T03:28:29;58.2;;;33.6;;
23360;SDS011;11852;50.082;18.554;2024-03-08T03:29:34;56.3;;;34.6;;
23360;SDS011;11852;50.082;18.554;2024-03-08T03:30:39;56.5;;;33.1;;
23360;SDS011;11852;50.082;18.554;2024-03-08T03:31:47;52.4;;;32.2;;
23360;SDS011;11852;50.082;18.554;2024-03-08T03:32:52;53.2;;;31.2;;
23360;SDS011;11852;50.082;18.554;2024-03-08T03:33:56;49.5;;;30.9;;
23360;SDS011;11852;50.082;18.554;2024-03-08T03:35:01;49.7;;;31.5;;
23360;SDS011;11852;50.082;18.554;2024-03-08T03:36:06;50.8;;;32.6;;
23360;SDS011;11852;50.082;18.554;2024-03-08T03:37:13;52.9;;;33.2;;
23360;SDS011;11852;50.082;18.554;2024-03-08T03:38:18;51.0;;;32.2;;
23360;SDS011;11852;50.082;18.554;2024-03-08T03:39:23;51.9;;;31.8;;
23360;SDS011;11852;50.082;18.554;2024-03-08T03:40:28;55.9;;;33.3;;
23360;SDS011;11852;50.082;18.554;2024-03-08T03:41:33;53.3;;;33.4;;
23360;SDS011;11852;50.082;18.554;2024-03-08T03:42:38;55.8;;;32.9;;
23360;SDS011;11852;50.082;18.554;2024-03-08T03:43:42;54.2;;;33.5;;
23360;SDS011;11852;50.082;18.554;2024-03-08T03:44:47;53.8;;;32.8;;
23360;SDS011;11852;50.082;18.554;2024-03-08T03:45:52;53.7;;;32.4;;
23360;SDS011;11852;50.082;18.554;2024-03-08T03:46:57;54.3;;;32.7;;
23360;SDS011;11852;50.082;18.554;2024-03-08T03:48:02;55.6;;;32.0;;
23360;SDS011;11852;50.082;18.554;2024-03-08T03:49:06;56.4;;;32.6;;
23360;SDS011;11852;50.082;18.554;2024-03-08T03:50:11;54.6;;;32.9;;
23360;SDS011;11852;50.082;18.554;2024-03-08T03:51:16;55.3;;;32.0;;
23360;SDS011;11852;50.082;18.554;2024-03-08T03:52:21;54.0;;;32.6;;
23360;SDS011;11852;50.082;18.554;2024-03-08T03:53:28;54.0;;;32.6;;
23360;SDS011;11852;50.082;18.554;2024-03-08T03:54:33;53.1;;;32.9;;
23360;SDS011;11852;50.082;18.554;2024-03-08T03:55:38;56.6;;;33.5;;
23360;SDS011;11852;50.082;18.554;2024-03-08T03:56:43;55.1;;;32.7;;
23360;SDS011;11852;50.082;18.554;2024-03-08T03:57:48;57.8;;;34.7;;
23360;SDS011;11852;50.082;18.554;2024-03-08T03:58:53;55.4;;;32.1;;
23360;SDS011;11852;50.082;18.554;2024-03-08T04:00:00;58.5;;;35.0;;
23360;SDS011;11852;50.082;18.554;2024-03-08T04:01:05;56.1;;;33.2;;
23360;SDS011;11852;50.082;18.554;2024-03-08T04:02:10;61.6;;;34.4;;
23360;SDS011;11852;50.082;18.554;2024-03-08T04:03:14;61.4;;;35.9;;
23360;SDS011;11852;50.082;18.554;2024-03-08T04:04:20;57.8;;;34.3;;
23360;SDS011;11852;50.082;18.554;2024-03-08T04:05:24;55.8;;;32.5;;
23360;SDS011;11852;50.082;18.554;2024-03-08T04:06:29;53.9;;;32.1;;
23360;SDS011;11852;50.082;18.554;2024-03-08T04:07:34;55.6;;;31.7;;
23360;SDS011;11852;50.082;18.554;2024-03-08T04:08:39;53.8;;;31.4;;
23360;SDS011;11852;50.082;18.554;2024-03-08T04:09:44;49.9;;;29.4;;
23360;SDS011;11852;50.082;18.554;2024-03-08T04:10:47;49.9;;;29.4;;
23360;SDS011;11852;50.082;18.554;2024-03-08T04:12:02;49.9;;;29.4;;
23360;SDS011;11852;50.082;18.554;2024-03-08T04:14:04;49.9;;;29.4;;
23360;SDS011;11852;50.082;18.554;2024-03-08T04:16:08;49.9;;;29.4;;
23360;SDS011;11852;50.082;18.554;2024-03-08T04:17:20;55.0;;;32.3;;
23360;SDS011;11852;50.082;18.554;2024-03-08T04:18:25;59.1;;;32.4;;
23360;SDS011;11852;50.082;18.554;2024-03-08T04:19:31;58.2;;;34.8;;
23360;SDS011;11852;50.082;18.554;2024-03-08T04:20:36;57.9;;;33.0;;
23360;SDS011;11852;50.082;18.554;2024-03-08T04:21:41;59.0;;;32.6;;
23360;SDS011;11852;50.082;18.554;2024-03-08T04:22:47;59.3;;;33.5;;
23360;SDS011;11852;50.082;18.554;2024-03-08T04:23:52;58.3;;;33.7;;
23360;SDS011;11852;50.082;18.554;2024-03-08T04:24:57;56.9;;;32.2;;
23360;SDS011;11852;50.082;18.554;2024-03-08T04:26:02;58.2;;;34.1;;
23360;SDS011;11852;50.082;18.554;2024-03-08T04:27:08;58.8;;;33.6;;
23360;SDS011;11852;50.082;18.554;2024-03-08T04:28:13;61.1;;;33.8;;
23360;SDS011;11852;50.082;18.554;2024-03-08T04:29:18;57.0;;;33.4;;
23360;SDS011;11852;50.082;18.554;2024-03-08T04:30:24;54.8;;;31.5;;
23360;SDS011;11852;50.082;18.554;2024-03-08T04:31:29;55.6;;;32.1;;
23360;SDS011;11852;50.082;18.554;2024-03-08T04:32:34;50.4;;;29.7;;
23360;SDS011;11852;50.082;18.554;2024-03-08T04:33:39;49.9;;;31.8;;
23360;SDS011;11852;50.082;18.554;2024-03-08T04:34:44;51.5;;;29.3;;
23360;SDS011;11852;50.082;18.554;2024-03-08T04:35:52;48.1;;;30.7;;
23360;SDS011;11852;50.082;18.554;2024-03-08T04:36:57;54.5;;;30.2;;
23360;SDS011;11852;50.082;18.554;2024-03-08T04:38:01;50.1;;;29.7;;
23360;SDS011;11852;50.082;18.554;2024-03-08T04:39:06;46.7;;;26.6;;
23360;SDS011;11852;50.082;18.554;2024-03-08T04:40:11;46.7;;;26.6;;
23360;SDS011;11852;50.082;18.554;2024-03-08T04:41:16;45.7;;;27.8;;
23360;SDS011;11852;50.082;18.554;2024-03-08T04:42:21;45.7;;;27.8;;
23360;SDS011;11852;50.082;18.554;2024-03-08T04:43:25;45.7;;;27.8;;
23360;SDS011;11852;50.082;18.554;2024-03-08T04:44:30;45.7;;;27.8;;
23360;SDS011;11852;50.082;18.554;2024-03-08T04:45:35;45.7;;;27.8;;
23360;SDS011;11852;50.082;18.554;2024-03-08T04:46:40;45.7;;;27.8;;
23360;SDS011;11852;50.082;18.554;2024-03-08T04:47:47;45.7;;;27.8;;
23360;SDS011;11852;50.082;18.554;2024-03-08T04:48:52;45.7;;;27.8;;
23360;SDS011;11852;50.082;18.554;2024-03-08T04:49:56;50.3;;;30.4;;
23360;SDS011;11852;50.082;18.554;2024-03-08T04:51:02;53.3;;;32.1;;
23360;SDS011;11852;50.082;18.554;2024-03-08T04:52:07;51.9;;;31.7;;
23360;SDS011;11852;50.082;18.554;2024-03-08T04:53:12;54.0;;;31.4;;
23360;SDS011;11852;50.082;18.554;2024-03-08T04:54:18;53.8;;;30.9;;
23360;SDS011;11852;50.082;18.554;2024-03-08T04:55:24;53.8;;;30.9;;
23360;SDS011;11852;50.082;18.554;2024-03-08T04:56:30;53.8;;;30.9;;
23360;SDS011;11852;50.082;18.554;2024-03-08T04:57:36;53.8;;;30.9;;
23360;SDS011;11852;50.082;18.554;2024-03-08T04:58:44;50.8;;;30.5;;
23360;SDS011;11852;50.082;18.554;2024-03-08T04:59:49;48.6;;;28.2;;
23360;SDS011;11852;50.082;18.554;2024-03-08T05:00:54;53.4;;;30.0;;
23360;SDS011;11852;50.082;18.554;2024-03-08T05:02:00;49.7;;;31.2;;
23360;SDS011;11852;50.082;18.554;2024-03-08T05:03:06;52.5;;;31.7;;
23360;SDS011;11852;50.082;18.554;2024-03-08T05:04:11;51.5;;;30.0;;
23360;SDS011;11852;50.082;18.554;2024-03-08T05:05:16;53.8;;;31.1;;
23360;SDS011;11852;50.082;18.554;2024-03-08T05:06:20;49.4;;;29.6;;
23360;SDS011;11852;50.082;18.554;2024-03-08T05:07:26;46.6;;;28.8;;
23360;SDS011;11852;50.082;18.554;2024-03-08T05:08:30;52.8;;;30.1;;
23360;SDS011;11852;50.082;18.554;2024-03-08T05:09:36;49.2;;;29.3;;
23360;SDS011;11852;50.082;18.554;2024-03-08T05:10:40;49.4;;;28.6;;
23360;SDS011;11852;50.082;18.554;2024-03-08T05:11:45;45.2;;;27.8;;
23360;SDS011;11852;50.082;18.554;2024-03-08T05:12:50;49.3;;;29.5;;
23360;SDS011;11852;50.082;18.554;2024-03-08T05:13:55;51.0;;;29.0;;
23360;SDS011;11852;50.082;18.554;2024-03-08T05:15:00;52.5;;;30.6;;
23360;SDS011;11852;50.082;18.554;2024-03-08T05:16:04;54.4;;;31.7;;
23360;SDS011;11852;50.082;18.554;2024-03-08T05:17:09;52.0;;;31.1;;
23360;SDS011;11852;50.082;18.554;2024-03-08T05:18:14;51.0;;;31.8;;
23360;SDS011;11852;50.082;18.554;2024-03-08T05:19:19;53.0;;;33.0;;
23360;SDS011;11852;50.082;18.554;2024-03-08T05:20:24;54.3;;;32.4;;
23360;SDS011;11852;50.082;18.554;2024-03-08T05:21:28;57.3;;;33.2;;
23360;SDS011;11852;50.082;18.554;2024-03-08T05:22:33;54.9;;;32.6;;
23360;SDS011;11852;50.082;18.554;2024-03-08T05:23:38;52.9;;;31.6;;
23360;SDS011;11852;50.082;18.554;2024-03-08T05:24:43;54.5;;;32.7;;
23360;SDS011;11852;50.082;18.554;2024-03-08T05:25:48;53.0;;;31.0;;
23360;SDS011;11852;50.082;18.554;2024-03-08T05:26:52;55.5;;;32.7;;
23360;SDS011;11852;50.082;18.554;2024-03-08T05:27:57;56.3;;;32.8;;
23360;SDS011;11852;50.082;18.554;2024-03-08T05:29:02;53.4;;;31.1;;
23360;SDS011;11852;50.082;18.554;2024-03-08T05:30:07;54.1;;;32.5;;
23360;SDS011;11852;50.082;18.554;2024-03-08T05:31:17;49.2;;;31.2;;
23360;SDS011;11852;50.082;18.554;2024-03-08T05:32:16;53.3;;;31.3;;
23360;SDS011;11852;50.082;18.554;2024-03-08T05:33:21;49.4;;;29.0;;
23360;SDS011;11852;50.082;18.554;2024-03-08T05:34:26;47.3;;;29.7;;
23360;SDS011;11852;50.082;18.554;2024-03-08T05:35:31;51.3;;;30.5;;
23360;SDS011;11852;50.082;18.554;2024-03-08T05:36:36;49.0;;;29.6;;
23360;SDS011;11852;50.082;18.554;2024-03-08T05:37:43;49.0;;;29.0;;
23360;SDS011;11852;50.082;18.554;2024-03-08T05:38:48;49.7;;;30.4;;
23360;SDS011;11852;50.082;18.554;2024-03-08T05:39:53;51.8;;;30.2;;
23360;SDS011;11852;50.082;18.554;2024-03-08T05:40:58;51.7;;;31.8;;
23360;SDS011;11852;50.082;18.554;2024-03-08T05:42:03;54.1;;;32.0;;
23360;SDS011;11852;50.082;18.554;2024-03-08T05:43:07;50.1;;;31.5;;
23360;SDS011;11852;50.082;18.554;2024-03-08T05:44:15;51.1;;;30.5;;
23360;SDS011;11852;50.082;18.554;2024-03-08T05:45:23;50.3;;;29.0;;
23360;SDS011;11852;50.082;18.554;2024-03-08T05:46:27;51.1;;;30.8;;
23360;SDS011;11852;50.082;18.554;2024-03-08T05:47:35;50.9;;;30.5;;
23360;SDS011;11852;50.082;18.554;2024-03-08T05:48:39;50.0;;;29.4;;
23360;SDS011;11852;50.082;18.554;2024-03-08T05:49:44;53.3;;;31.0;;
23360;SDS011;11852;50.082;18.554;2024-03-08T05:50:49;51.0;;;29.9;;
23360;SDS011;11852;50.082;18.554;2024-03-08T05:51:57;55.2;;;31.7;;
23360;SDS011;11852;50.082;18.554;2024-03-08T05:53:02;57.1;;;33.3;;
23360;SDS011;11852;50.082;18.554;2024-03-08T05:54:07;54.8;;;31.9;;
23360;SDS011;11852;50.082;18.554;2024-03-08T05:55:11;60.1;;;33.8;;
23360;SDS011;11852;50.082;18.554;2024-03-08T05:56:16;57.7;;;34.7;;
23360;SDS011;11852;50.082;18.554;2024-03-08T05:57:21;58.9;;;34.2;;
23360;SDS011;11852;50.082;18.554;2024-03-08T05:58:25;57.0;;;32.6;;
23360;SDS011;11852;50.082;18.554;2024-03-08T05:59:30;57.6;;;32.4;;
23360;SDS011;11852;50.082;18.554;2024-03-08T06:00:35;57.5;;;34.4;;
23360;SDS011;11852;50.082;18.554;2024-03-08T06:01:40;57.4;;;34.5;;
23360;SDS011;11852;50.082;18.554;2024-03-08T06:02:45;59.8;;;33.6;;
23360;SDS011;11852;50.082;18.554;2024-03-08T06:03:49;55.1;;;33.6;;
23360;SDS011;11852;50.082;18.554;2024-03-08T06:04:54;56.1;;;32.8;;
23360;SDS011;11852;50.082;18.554;2024-03-08T06:05:59;57.4;;;32.4;;
23360;SDS011;11852;50.082;18.554;2024-03-08T06:07:04;54.0;;;31.5;;
23360;SDS011;11852;50.082;18.554;2024-03-08T06:08:09;55.0;;;33.0;;
23360;SDS011;11852;50.082;18.554;2024-03-08T06:09:13;55.1;;;33.2;;
23360;SDS011;11852;50.082;18.554;2024-03-08T06:10:23;53.7;;;30.6;;
23360;SDS011;11852;50.082;18.554;2024-03-08T06:11:28;55.5;;;32.0;;
23360;SDS011;11852;50.082;18.554;2024-03-08T06:12:33;55.0;;;31.9;;
23360;SDS011;11852;50.082;18.554;2024-03-08T06:13:38;51.8;;;31.5;;
23360;SDS011;11852;50.082;18.554;2024-03-08T06:14:43;50.2;;;30.1;;
23360;SDS011;11852;50.082;18.554;2024-03-08T06:15:47;50.7;;;29.4;;
23360;SDS011;11852;50.082;18.554;2024-03-08T06:16:52;52.1;;;30.9;;
23360;SDS011;11852;50.082;18.554;2024-03-08T06:17:57;51.5;;;30.2;;
23360;SDS011;11852;50.082;18.554;2024-03-08T06:19:02;56.7;;;31.6;;
23360;SDS011;11852;50.082;18.554;2024-03-08T06:20:07;50.5;;;30.2;;
23360;SDS011;11852;50.082;18.554;2024-03-08T06:21:13;50.0;;;30.4;;
23360;SDS011;11852;50.082;18.554;2024-03-08T06:22:18;51.9;;;29.3;;
23360;SDS011;11852;50.082;18.554;2024-03-08T06:23:23;51.9;;;29.3;;
23360;SDS011;11852;50.082;18.554;2024-03-08T06:24:28;53.4;;;30.7;;
23360;SDS011;11852;50.082;18.554;2024-03-08T06:25:33;53.0;;;30.2;;
23360;SDS011;11852;50.082;18.554;2024-03-08T06:26:37;51.8;;;29.0;;
23360;SDS011;11852;50.082;18.554;2024-03-08T06:27:43;47.2;;;28.4;;
23360;SDS011;11852;50.082;18.554;2024-03-08T06:28:47;53.6;;;30.9;;